Time;durP1;ratioP1;P1;durP2;ratioP2;P2;SDS_P1;SDS_P2;PMS_P1;PMS_P2;Temp;Humidity;BMP_temperature;BMP_pressure;BME280_temperature;BME280_humidity;BME280_pressure;Samples;Min_cycle;Max_cycle;Signal;HPM_P1;HPM_P2
2022/11/03 00:02:25;;;;;;;20.32;10.25;;;;;;;9.16;79.70;100466.99;1734610;81;21026;-66
2022/11/03 00:04:54;;;;;;;25.43;11.93;;;;;;;9.18;79.95;100464.07;1744995;81;21052;-63
2022/11/03 00:07:24;;;;;;;24.37;11.38;;;;;;;9.19;80.08;100458.94;1755133;81;21026;-61
2022/11/03 00:09:54;;;;;;;22.10;10.95;;;;;;;9.20;80.24;100457.37;1733821;81;21014;-62
2022/11/03 00:12:25;;;;;;;23.18;10.88;;;;;;;9.20;80.27;100464.22;1744595;81;21053;-62
2022/11/03 00:14:54;;;;;;;19.70;10.82;;;;;;;9.20;80.33;100449.17;1760527;81;21037;-62
2022/11/03 00:17:23;;;;;;;25.82;11.40;;;;;;;9.21;80.37;100455.49;1734628;81;21258;-62
2022/11/03 00:19:54;;;;;;;25.37;12.37;;;;;;;9.21;80.52;100448.14;1747724;81;20987;-62
2022/11/03 00:22:24;;;;;;;23.00;11.55;;;;;;;9.22;80.63;100454.45;1745747;81;21029;-63
2022/11/03 00:24:53;;;;;;;22.95;12.07;;;;;;;9.23;80.77;100451.20;1750229;81;20998;-63
2022/11/03 00:27:23;;;;;;;23.60;11.65;;;;;;;9.23;80.76;100449.32;1757006;81;21494;-62
2022/11/03 00:29:52;;;;;;;26.75;12.15;;;;;;;9.27;80.77;100452.02;1754982;81;21012;-62
2022/11/03 00:32:22;;;;;;;24.00;12.07;;;;;;;9.29;80.79;100458.66;1734766;81;21051;-61
2022/11/03 00:34:51;;;;;;;21.93;11.73;;;;;;;9.29;80.87;100460.02;1735129;81;21109;-63
2022/11/03 00:37:21;;;;;;;22.87;10.70;;;;;;;9.28;80.86;100459.69;1748154;81;21022;-63
2022/11/03 00:39:50;;;;;;;25.95;10.85;;;;;;;9.26;80.79;100455.78;1752759;81;21027;-61
2022/11/03 00:42:19;;;;;;;22.35;11.12;;;;;;;9.22;80.73;100459.92;1733226;81;21524;-63
2022/11/03 00:44:48;;;;;;;24.98;11.30;;;;;;;9.20;80.78;100458.75;1733350;81;21093;-62
2022/11/03 00:47:17;;;;;;;25.02;12.50;;;;;;;9.19;80.89;100459.78;1745983;81;21082;-63
2022/11/03 00:49:48;;;;;;;27.95;12.73;;;;;;;9.18;80.99;100462.19;1741870;81;21466;-62
2022/11/03 00:52:18;;;;;;;28.52;13.15;;;;;;;9.18;81.08;100458.09;1744993;81;21007;-63
2022/11/03 00:54:47;;;;;;;25.35;13.15;;;;;;;9.18;81.17;100449.88;1735196;81;21469;-62
2022/11/03 00:57:18;;;;;;;23.38;11.93;;;;;;;9.17;81.28;100446.82;1745949;81;21488;-63
2022/11/03 00:59:47;;;;;;;31.20;14.30;;;;;;;9.17;81.26;100439.14;1765766;80;21101;-62
2022/11/03 01:02:16;;;;;;;29.05;14.80;;;;;;;9.14;81.29;100438.15;1795577;80;21010;-63
2022/11/03 01:07:34;;;;;;;26.52;14.25;;;;;;;9.11;81.58;100445.36;1762522;80;21035;-62
2022/11/03 01:10:06;;;;;;;28.98;13.90;;;;;;;9.08;81.75;100445.17;1784975;80;20998;-62
2022/11/03 01:12:35;;;;;;;24.10;12.80;;;;;;;9.09;81.86;100448.77;1766769;80;21003;-62
2022/11/03 01:15:08;;;;;;;27.22;13.40;;;;;;;9.11;81.91;100439.89;1785414;80;21058;-62
2022/11/03 01:17:39;;;;;;;36.03;14.50;;;;;;;9.07;82.05;100442.11;1777033;80;21367;-62
2022/11/03 01:20:10;;;;;;;27.80;14.33;;;;;;;9.06;82.27;100447.25;1778195;80;21073;-61
2022/11/03 01:22:39;;;;;;;28.62;14.98;;;;;;;9.07;82.48;100449.47;1781036;80;21070;-62
2022/11/03 01:25:09;;;;;;;29.37;14.35;;;;;;;9.07;82.50;100440.75;1795718;80;20999;-61
2022/11/03 01:27:39;;;;;;;28.17;14.03;;;;;;;9.09;82.59;100456.96;1779963;80;21437;-61
2022/11/03 01:30:09;;;;;;;28.30;14.10;;;;;;;9.08;82.63;100456.63;1763842;80;21097;-61
2022/11/03 01:32:40;;;;;;;30.62;15.40;;;;;;;9.08;82.66;100458.84;1774289;80;20975;-62
2022/11/03 01:35:09;;;;;;;31.25;16.07;;;;;;;9.08;82.81;100461.58;1764735;80;21018;-62
2022/11/03 01:37:38;;;;;;;28.57;15.72;;;;;;;9.09;82.92;100453.70;1782876;80;21018;-61
2022/11/03 01:40:09;;;;;;;32.48;14.93;;;;;;;9.09;82.95;100448.77;1788157;80;21026;-61
2022/11/03 01:42:39;;;;;;;27.73;14.13;;;;;;;9.06;83.11;100445.88;1790103;80;21034;-63
2022/11/03 01:45:09;;;;;;;33.98;15.63;;;;;;;9.04;83.27;100445.22;1784716;80;21481;-62
2022/11/03 01:47:39;;;;;;;29.82;14.63;;;;;;;9.04;83.41;100442.48;1765686;80;21018;-62
2022/11/03 01:50:11;;;;;;;31.73;15.83;;;;;;;9.05;83.56;100456.48;1732366;81;21082;-61
2022/11/03 01:52:56;;;;;;;31.33;15.38;;;;;;;9.05;83.66;100454.27;1776920;80;21058;-62
2022/11/03 01:55:31;;;;;;;27.55;14.50;;;;;;;9.04;83.77;100445.22;1774433;80;20979;-61
2022/11/03 01:58:19;;;;;;;31.52;14.83;;;;;;;9.06;83.86;100447.25;1767417;80;21097;-61
2022/11/03 02:00:51;;;;;;;29.57;14.80;;;;;;;9.08;83.88;100447.06;1769808;80;21529;-61
2022/11/03 02:03:21;;;;;;;28.80;15.08;;;;;;;9.11;83.96;100446.20;1735492;81;21062;-61
2022/11/03 02:05:52;;;;;;;30.12;15.28;;;;;;;9.13;84.03;100448.75;1748389;81;21447;-62
2022/11/03 02:08:31;;;;;;;29.07;15.05;;;;;;;9.16;84.09;100455.20;1735532;81;21106;-62
2022/11/03 02:12:05;;;;;;;30.00;14.40;;;;;;;9.16;84.08;100451.11;1730373;81;21106;-62
2022/11/03 02:13:36;;;;;;;31.30;14.65;;;;;;;9.15;84.08;100448.05;1738798;81;21055;-61
2022/11/03 02:16:06;;;;;;;30.23;14.78;;;;;;;9.13;84.17;100447.38;1761637;81;21081;-62
2022/11/03 02:18:36;;;;;;;32.23;15.68;;;;;;;9.12;84.25;100441.06;1735352;81;21062;-61
2022/11/03 02:21:14;;;;;;;29.77;14.50;;;;;;;9.12;84.37;100434.23;1739369;81;21105;-61
2022/11/03 02:24:05;;;;;;;30.32;15.60;;;;;;;9.13;84.41;100435.93;1754013;81;21015;-61
2022/11/03 02:26:34;;;;;;;29.23;14.85;;;;;;;9.16;84.39;100435.55;1755004;81;21034;-62
2022/11/03 02:29:03;;;;;;;29.87;15.48;;;;;;;9.18;84.33;100440.31;1766201;81;21072;-61
2022/11/03 02:31:42;;;;;;;30.85;15.80;;;;;;;9.17;84.39;100436.41;1755213;81;21022;-62
2022/11/03 02:34:35;;;;;;;28.87;15.83;;;;;;;9.16;84.50;100438.29;1736136;81;21451;-61
2022/11/03 02:37:13;;;;;;;32.20;15.23;;;;;;;9.14;84.61;100438.99;1760661;81;21450;-62
2022/11/03 02:39:48;;;;;;;31.75;16.60;;;;;;;9.14;84.72;100441.73;1759498;81;21493;-61
2022/11/03 02:42:18;;;;;;;28.80;15.05;;;;;;;9.13;84.79;100444.65;1722282;81;21006;-63
2022/11/03 02:44:47;;;;;;;32.55;16.02;;;;;;;9.11;84.99;100439.37;1765761;81;21025;-63
2022/11/03 02:47:17;;;;;;;33.40;16.77;;;;;;;9.11;85.17;100435.79;1735956;81;21493;-61
2022/11/03 02:49:48;;;;;;;32.25;14.55;;;;;;;9.11;85.27;100427.07;1748265;81;21459;-61
2022/11/03 02:52:42;;;;;;;32.60;15.32;;;;;;;9.12;85.34;100432.87;1752679;81;21088;-62
2022/11/03 02:55:38;;;;;;;32.63;15.93;;;;;;;9.15;85.46;100440.69;1749815;81;21445;-62
2022/11/03 02:58:41;;;;;;;31.77;16.37;;;;;;;9.18;85.50;100431.27;1750263;81;21040;-61
2022/11/03 03:01:35;;;;;;;29.63;15.68;;;;;;;9.22;85.55;100432.59;1781703;80;21027;-64
2022/11/03 03:04:07;;;;;;;29.32;15.88;;;;;;;9.23;85.62;100434.28;1760057;80;20995;-63
2022/11/03 03:06:47;;;;;;;29.18;14.73;;;;;;;9.23;85.68;100427.97;1780879;80;21007;-61
2022/11/03 03:09:22;;;;;;;29.98;16.12;;;;;;;9.24;85.77;100431.03;1763677;80;21015;-62
2022/11/03 03:11:52;;;;;;;28.60;15.95;;;;;;;9.24;85.91;100425.56;1778720;80;21042;-62
2022/11/03 03:14:33;;;;;;;31.50;16.67;;;;;;;9.22;86.09;100425.75;1771136;80;20982;-62
2022/11/03 03:17:09;;;;;;;30.68;14.63;;;;;;;9.22;86.22;100423.02;1738757;81;21505;-64
2022/11/03 03:20:06;;;;;;;27.90;14.40;;;;;;;9.21;86.37;100422.17;1762499;80;21427;-61
2022/11/03 03:22:55;;;;;;;31.90;16.95;;;;;;;9.22;86.52;100414.81;1735353;81;21480;-62
2022/11/03 03:25:34;;;;;;;30.60;16.48;;;;;;;9.20;86.78;100419.63;1774262;80;21007;-61
2022/11/03 03:28:11;;;;;;;34.83;16.07;;;;;;;9.21;87.00;100411.23;1765630;80;21054;-61
2022/11/03 03:30:41;;;;;;;33.25;15.83;;;;;;;9.22;87.21;100416.19;1761539;80;21058;-62
2022/11/03 03:33:11;;;;;;;38.88;16.73;;;;;;;9.20;87.38;100415.01;1771335;80;21096;-61
2022/11/03 03:35:42;;;;;;;32.80;15.90;;;;;;;9.18;87.62;100412.13;1762265;80;21070;-63
2022/11/03 03:38:16;;;;;;;34.03;15.50;;;;;;;9.17;87.83;100404.97;1781046;80;21513;-63
2022/11/03 03:40:46;;;;;;;33.25;16.85;;;;;;;9.15;88.19;100403.78;1750239;80;21496;-63
2022/11/03 03:43:15;;;;;;;35.00;15.90;;;;;;;9.12;88.60;100401.95;1771330;80;21446;-64
2022/11/03 03:45:44;;;;;;;35.78;16.60;;;;;;;9.11;88.99;100404.36;1762140;80;21461;-62
2022/11/03 03:48:13;;;;;;;31.37;15.75;;;;;;;9.11;89.30;100406.57;1759083;80;21495;-63
2022/11/03 03:50:42;;;;;;;33.78;17.10;;;;;;;9.11;89.52;100406.57;1765941;80;21018;-62
2022/11/03 03:53:12;;;;;;;37.88;19.40;;;;;;;9.09;89.83;100408.61;1776245;80;21038;-61
2022/11/03 03:55:46;;;;;;;38.75;19.20;;;;;;;9.08;90.16;100406.06;1749511;80;21038;-62
2022/11/03 03:58:15;;;;;;;38.58;16.75;;;;;;;9.08;90.52;100408.28;1776243;80;20983;-62
2022/11/03 04:00:43;;;;;;;34.35;17.02;;;;;;;9.07;90.75;100390.70;1747405;80;21042;-64
2022/11/03 04:03:17;;;;;;;35.30;15.93;;;;;;;9.07;90.96;100401.11;1732724;81;21101;-63
2022/11/03 04:05:46;;;;;;;39.35;17.02;;;;;;;9.06;91.15;100403.52;1756190;81;21046;-64
2022/11/03 04:08:17;;;;;;;36.20;17.05;;;;;;;9.08;91.38;100400.59;1732563;81;21459;-64
2022/11/03 04:22:15;;;;;;;38.95;17.48;;;;;;;9.08;92.60;100384.20;1727481;81;21063;-63
2022/11/03 04:24:52;;;;;;;34.23;16.37;;;;;;;9.08;92.85;100382.31;1733636;81;21026;-62
2022/11/03 04:27:35;;;;;;;37.10;16.12;;;;;;;9.09;93.01;100379.91;1751242;81;21010;-63
2022/11/03 04:30:18;;;;;;;37.15;17.90;;;;;;;9.11;93.19;100379.75;1733544;81;21034;-64
2022/11/03 04:32:48;;;;;;;37.33;16.82;;;;;;;9.10;93.43;100375.30;1746769;81;20991;-63
2022/11/03 04:35:25;;;;;;;37.25;16.70;;;;;;;9.09;93.70;100374.44;1740989;81;21070;-63
2022/11/03 04:37:57;;;;;;;;;;;;;;;9.13;93.87;100378.53;1750531;81;21014;-62
2022/11/03 04:40:26;;;;;;;36.73;17.30;;;;;;;9.15;94.03;100383.81;1746227;81;20141;-63
2022/11/03 04:42:55;;;;;;;37.00;17.50;;;;;;;9.13;94.23;100375.80;1735831;81;21006;-66
2022/11/03 04:45:31;;;;;;;33.58;15.53;;;;;;;9.13;94.44;100377.68;1750179;81;21005;-62
2022/11/03 04:48:02;;;;;;;31.10;14.50;;;;;;;9.15;94.61;100375.61;1748999;81;21049;-63
2022/11/03 04:50:31;;;;;;;28.45;14.25;;;;;;;9.15;94.72;100379.19;1758742;81;21045;-63
2022/11/03 04:53:02;;;;;;;31.40;16.30;;;;;;;9.15;94.96;100379.19;1759950;81;21729;-63
2022/11/03 04:55:31;;;;;;;34.60;15.75;;;;;;;9.17;95.20;100378.48;1749255;81;21249;-63
2022/11/03 04:58:04;;;;;;;32.40;17.37;;;;;;;9.15;95.36;100375.09;1738154;81;21015;-65
2022/11/03 05:00:33;;;;;;;32.17;16.85;;;;;;;9.16;95.58;100378.16;1759366;81;21058;-63
2022/11/03 05:03:03;;;;;;;37.25;17.95;;;;;;;9.17;95.76;100383.95;1775819;80;21466;-64
2022/11/03 05:05:33;;;;;;;34.20;16.55;;;;;;;9.18;96.00;100378.81;1787295;80;21089;-64
2022/11/03 05:08:04;;;;;;;37.67;18.60;;;;;;;9.18;96.20;100374.70;1765653;80;21038;-67
2022/11/03 05:10:34;;;;;;;53.45;24.07;;;;;;;9.17;96.39;100375.75;1756765;81;21050;-66
2022/11/03 05:13:08;;;;;;;64.72;30.27;;;;;;;9.18;96.59;100371.98;1762815;80;21102;-67
2022/11/03 05:15:43;;;;;;;69.77;30.68;;;;;;;9.21;96.88;100381.16;1774146;80;21046;-65
2022/11/03 05:18:32;;;;;;;69.53;30.50;;;;;;;9.23;97.07;100384.23;1790896;80;21133;-63
2022/11/03 05:21:10;;;;;;;63.92;29.37;;;;;;;9.25;97.32;100386.25;1778000;80;21046;-64
2022/11/03 05:23:53;;;;;;;64.22;28.95;;;;;;;9.24;97.54;100379.94;1781421;80;21042;-64
2022/11/03 05:26:29;;;;;;;68.02;31.82;;;;;;;9.28;97.80;100384.50;1774384;80;21057;-63
2022/11/03 05:29:22;;;;;;;61.53;30.27;;;;;;;9.31;98.04;100395.06;1763037;80;21007;-65
2022/11/03 05:31:53;;;;;;;65.35;30.32;;;;;;;9.33;98.15;100391.62;1764500;80;21086;-63
2022/11/03 05:34:35;;;;;;;68.33;31.17;;;;;;;9.33;98.38;100391.10;1776624;80;21427;-63
2022/11/03 05:37:26;;;;;;;64.42;31.17;;;;;;;9.34;98.57;100393.31;1750016;81;21054;-64
2022/11/03 05:40:16;;;;;;;69.42;32.05;;;;;;;9.34;98.69;100394.16;1770695;80;21427;-62
2022/11/03 05:42:46;;;;;;;66.28;31.52;;;;;;;9.33;98.79;100394.35;1769890;80;21055;-64
2022/11/03 05:45:25;;;;;;;70.00;32.17;;;;;;;9.34;99.13;100391.43;1761243;81;20998;-63
2022/11/03 05:47:56;;;;;;;62.35;31.20;;;;;;;9.35;99.25;100388.17;1775321;80;21050;-64
2022/11/03 05:50:28;;;;;;;50.52;24.82;;;;;;;9.35;99.49;100389.55;1761049;80;21121;-63
2022/11/03 05:53:17;;;;;;;49.58;23.32;;;;;;;9.36;99.77;100392.09;1753097;81;21054;-62
2022/11/03 05:55:47;;;;;;;49.67;25.60;;;;;;;9.40;100.00;100398.02;1780592;80;21030;-63
2022/11/03 05:58:37;;;;;;;48.02;23.02;;;;;;;9.46;100.00;100398.62;1766769;80;21074;-62
2022/11/03 06:01:24;;;;;;;57.30;26.80;;;;;;;9.52;100.00;100401.97;1763998;79;21414;-63
2022/11/03 06:03:53;;;;;;;46.15;22.55;;;;;;;9.55;100.00;100393.38;1737066;81;21440;-63
2022/11/03 06:06:36;;;;;;;38.65;20.05;;;;;;;9.54;100.00;100403.47;1750964;81;21038;-64
2022/11/03 06:09:20;;;;;;;45.03;20.23;;;;;;;9.57;100.00;100400.88;1688277;83;21480;-65
2022/11/03 06:11:50;;;;;;;40.80;20.05;;;;;;;9.61;100.00;100402.19;1692432;84;21054;-62
2022/11/03 06:14:25;;;;;;;37.30;18.92;;;;;;;9.65;100.00;100392.56;1693079;84;21443;-63
2022/11/03 06:16:59;;;;;;;40.73;18.87;;;;;;;9.68;100.00;100397.65;1678900;85;21041;-63
2022/11/03 06:19:38;;;;;;;32.80;16.15;;;;;;;9.71;100.00;100397.27;1695096;84;21085;-63
2022/11/03 06:22:36;;;;;;;33.00;16.15;;;;;;;9.76;100.00;100404.41;1680500;85;21007;-63
2022/11/03 06:25:29;;;;;;;30.95;14.15;;;;;;;9.81;100.00;100405.20;1697500;84;21043;-62
2022/11/03 06:28:08;;;;;;;31.50;15.70;;;;;;;9.84;100.00;100413.87;1731103;81;21030;-64
2022/11/03 06:30:39;;;;;;;25.97;13.75;;;;;;;9.88;100.00;100412.11;1749943;81;21058;-62
2022/11/03 06:33:20;;;;;;;19.80;11.85;;;;;;;9.91;100.00;100411.73;1756883;81;21003;-62
2022/11/03 06:35:50;;;;;;;23.30;12.07;;;;;;;9.93;100.00;100409.13;1742941;81;21010;-63
2022/11/03 06:38:24;;;;;;;23.40;11.60;;;;;;;9.95;100.00;100411.67;1735818;81;21070;-65
2022/11/03 06:40:54;;;;;;;25.08;10.48;;;;;;;9.97;100.00;100410.95;1735843;81;21437;-63
2022/11/03 06:43:27;;;;;;;24.50;11.55;;;;;;;10.02;100.00;100401.64;1754111;81;21472;-63
2022/11/03 06:46:05;;;;;;;22.22;11.03;;;;;;;10.07;100.00;100403.27;1741874;81;21402;-63
2022/11/03 06:48:38;;;;;;;20.02;10.90;;;;;;;10.10;100.00;100392.78;1752868;81;21049;-62
2022/11/03 06:51:15;;;;;;;21.15;10.53;;;;;;;10.11;100.00;100390.37;1707418;81;21001;-64
2022/11/03 06:53:43;;;;;;;26.82;11.93;;;;;;;10.16;100.00;100389.27;1738251;81;21059;-62
2022/11/03 06:56:15;;;;;;;22.62;11.22;;;;;;;10.22;100.00;100393.14;1748624;81;21463;-64
2022/11/03 06:58:45;;;;;;;23.10;12.13;;;;;;;10.25;100.00;100386.42;1761591;81;20982;-63
2022/11/03 07:01:24;;;;;;;27.22;12.20;;;;;;;10.28;100.00;100384.66;1736009;81;21165;-63
2022/11/03 07:04:21;;;;;;;26.35;13.98;;;;;;;10.33;100.00;100387.66;1735849;82;21078;-63
2022/11/03 07:06:51;;;;;;;34.53;17.35;;;;;;;10.36;100.00;100384.53;1699451;82;21074;-63
2022/11/03 07:09:27;;;;;;;26.80;14.43;;;;;;;10.39;100.00;100387.72;1727298;82;21412;-62
2022/11/03 07:12:00;;;;;;;24.50;12.25;;;;;;;10.42;100.00;100384.62;1718591;83;21011;-62
2022/11/03 07:14:32;;;;;;;32.03;13.93;;;;;;;10.45;100.00;100392.96;1703187;82;21021;-65
2022/11/03 07:17:04;;;;;;;23.32;12.43;;;;;;;10.45;100.00;100389.70;1639861;87;21542;-64
2022/11/03 07:19:37;;;;;;;23.50;12.75;;;;;;;10.45;100.00;100390.23;1641153;87;21067;-62
2022/11/03 07:22:23;;;;;;;25.92;13.48;;;;;;;10.48;100.00;100402.16;1640142;87;21341;-62
2022/11/03 07:24:56;;;;;;;28.62;14.47;;;;;;;10.48;100.00;100398.90;1642586;87;21636;-63
2022/11/03 07:27:30;;;;;;;32.30;14.53;;;;;;;10.51;100.00;100402.28;1638411;87;21561;-62
2022/11/03 07:30:10;;;;;;;25.87;12.83;;;;;;;10.49;100.00;100397.00;1642760;87;21094;-63
2022/11/03 07:32:39;;;;;;;30.60;15.35;;;;;;;10.48;100.00;100400.27;1636128;87;21362;-62
2022/11/03 07:35:26;;;;;;;33.95;16.35;;;;;;;10.47;100.00;100395.83;1669125;84;21126;-62
2022/11/03 07:38:01;;;;;;;31.45;14.78;;;;;;;10.48;100.00;100396.16;1670102;86;21029;-63
2022/11/03 07:40:32;;;;;;;32.23;14.80;;;;;;;10.51;100.00;100398.17;1701902;84;21003;-62
2022/11/03 07:43:19;;;;;;;35.85;18.42;;;;;;;10.50;100.00;100398.70;1702879;84;21058;-63
2022/11/03 07:45:51;;;;;;;28.83;15.23;;;;;;;10.52;100.00;100398.50;1672964;84;21036;-63
2022/11/03 07:48:36;;;;;;;35.03;17.12;;;;;;;10.51;100.00;100399.02;1675607;84;21427;-63
2022/11/03 07:51:33;;;;;;;29.75;15.95;;;;;;;10.54;100.00;100400.52;1673924;85;21061;-61
2022/11/03 07:54:24;;;;;;;30.85;16.02;;;;;;;10.56;100.00;100390.21;1680981;85;21078;-62
2022/11/03 07:56:59;;;;;;;26.15;14.68;;;;;;;10.58;100.00;100390.86;1675156;85;21040;-64
2022/11/03 07:59:39;;;;;;;28.12;14.33;;;;;;;10.60;100.00;100387.40;1697458;83;21018;-63
2022/11/03 08:02:32;;;;;;;31.95;15.05;;;;;;;10.63;100.00;100385.63;1742545;81;21038;-62
2022/11/03 08:05:04;;;;;;;28.95;15.30;;;;;;;10.65;100.00;100364.36;1782482;80;21450;-61
2022/11/03 08:07:33;;;;;;;32.55;15.25;;;;;;;10.70;100.00;100361.87;1778354;80;21018;-63
2022/11/03 08:10:03;;;;;;;30.97;14.90;;;;;;;10.79;100.00;100365.63;1779673;80;20988;-66
2022/11/03 08:12:33;;;;;;;27.27;14.07;;;;;;;10.89;100.00;100364.42;1781874;80;21435;-62
2022/11/03 08:15:02;;;;;;;28.52;14.73;;;;;;;10.97;100.00;100365.64;1769985;80;21109;-62
2022/11/03 08:17:31;;;;;;;23.10;13.13;;;;;;;11.05;100.00;100375.95;1758072;80;21486;-63
2022/11/03 08:20:01;;;;;;;25.25;13.28;;;;;;;11.12;100.00;100363.66;1771581;80;21042;-63
2022/11/03 08:22:31;;;;;;;25.82;14.03;;;;;;;11.15;100.00;100367.36;1790348;80;21054;-62
2022/11/03 08:25:01;;;;;;;27.77;14.30;;;;;;;11.18;100.00;100370.22;1774378;80;21014;-64
2022/11/03 08:27:30;;;;;;;28.05;15.10;;;;;;;11.18;100.00;100372.44;1777299;80;21502;-62
2022/11/03 08:30:00;;;;;;;25.62;13.60;;;;;;;11.19;100.00;100367.28;1775109;80;21034;-63
2022/11/03 08:32:28;;;;;;;25.92;13.48;;;;;;;11.20;100.00;100371.71;1774640;80;21050;-63
2022/11/03 08:34:58;;;;;;;27.40;13.98;;;;;;;11.18;100.00;100366.95;1762962;80;21007;-66
2022/11/03 08:37:27;;;;;;;27.73;13.90;;;;;;;11.21;100.00;100361.59;1778869;80;21054;-62
2022/11/03 08:39:57;;;;;;;25.05;14.40;;;;;;;11.23;100.00;100364.45;1795677;80;21065;-63
2022/11/03 08:42:26;;;;;;;31.12;14.83;;;;;;;11.27;100.00;100367.63;1754774;80;21022;-64
2022/11/03 08:44:54;;;;;;;28.47;13.78;;;;;;;11.27;100.00;100349.80;1773052;80;21022;-63
2022/11/03 08:47:24;;;;;;;29.85;14.68;;;;;;;11.29;100.00;100355.41;1779472;80;21482;-63
2022/11/03 08:49:53;;;;;;;26.25;14.33;;;;;;;11.31;100.00;100347.83;1764076;80;21110;-63
2022/11/03 08:52:23;;;;;;;31.40;13.58;;;;;;;11.34;100.00;100349.31;1764717;80;21082;-65
2022/11/03 08:54:53;;;;;;;29.02;13.68;;;;;;;11.32;100.00;100351.41;1769387;80;21102;-64
2022/11/03 08:57:21;;;;;;;24.80;12.75;;;;;;;11.32;100.00;100350.89;1768404;80;21082;-64
2022/11/03 08:59:51;;;;;;;25.90;13.13;;;;;;;11.35;100.00;100346.36;1750165;80;21022;-65
2022/11/03 09:02:21;;;;;;;25.52;12.55;;;;;;;11.38;100.00;100350.59;1750974;81;21059;-64
2022/11/03 09:04:50;;;;;;;20.35;11.43;;;;;;;11.38;100.00;100348.70;1794647;80;21394;-62
2022/11/03 09:07:19;;;;;;;21.00;11.57;;;;;;;11.37;100.00;100341.52;1792722;80;21077;-63
2022/11/03 09:09:49;;;;;;;25.17;12.03;;;;;;;11.37;100.00;100342.89;1775908;80;21489;-64
2022/11/03 09:12:20;;;;;;;22.35;11.00;;;;;;;11.38;100.00;100348.70;1787449;80;21042;-65
2022/11/03 09:14:51;;;;;;;18.48;9.75;;;;;;;11.39;100.00;100342.16;1737896;81;20995;-64
2022/11/03 09:17:21;;;;;;;21.57;10.70;;;;;;;11.39;100.00;100339.95;1754056;81;21085;-63
2022/11/03 09:19:51;;;;;;;19.55;10.80;;;;;;;11.38;100.00;100340.99;1729931;81;21429;-63
2022/11/03 09:22:21;;;;;;;25.00;10.90;;;;;;;11.41;100.00;100341.44;1750295;81;21047;-64
2022/11/03 09:24:50;;;;;;;19.25;8.93;;;;;;;11.45;100.00;100340.50;1756878;81;21116;-65
2022/11/03 09:27:19;;;;;;;15.15;8.70;;;;;;;11.44;100.00;100342.92;1737943;81;21651;-64
2022/11/03 09:29:50;;;;;;;14.25;9.93;;;;;;;11.40;100.00;100337.52;1699345;84;21097;-63
2022/11/03 09:32:22;;;;;;;15.50;8.93;;;;;;;11.40;100.00;100339.73;1689631;83;21246;-64
2022/11/03 09:34:53;;;;;;;14.75;7.85;;;;;;;11.39;100.00;100342.16;1721318;83;21059;-64
2022/11/03 09:37:21;;;;;;;15.58;8.38;;;;;;;11.38;100.00;100341.84;1711447;82;21072;-63
2022/11/03 09:39:55;;;;;;;15.00;8.55;;;;;;;11.34;100.00;100339.19;1710992;82;21104;-65
2022/11/03 09:42:24;;;;;;;14.28;8.10;;;;;;;11.34;100.00;100339.71;1703053;83;21034;-66
2022/11/03 09:44:53;;;;;;;12.30;7.35;;;;;;;11.34;100.00;100335.59;1701520;82;21055;-63
2022/11/03 09:47:32;;;;;;;13.00;7.65;;;;;;;11.31;100.00;100342.34;1736875;80;21054;-67
2022/11/03 09:50:01;;;;;;;12.18;6.58;;;;;;;11.30;100.00;100337.05;1754115;80;21512;-64
2022/11/03 09:52:30;;;;;;;10.98;6.30;;;;;;;11.29;100.00;100338.95;1755463;80;21062;-63
2022/11/03 09:55:01;;;;;;;9.43;5.65;;;;;;;11.28;100.00;100341.90;1748751;81;21051;-63
2022/11/03 09:57:30;;;;;;;16.40;8.43;;;;;;;11.27;100.00;100331.98;1762714;80;21022;-63
2022/11/03 09:59:59;;;;;;;10.10;6.15;;;;;;;11.25;100.00;100336.82;1748320;80;20982;-65
2022/11/03 10:02:30;;;;;;;16.00;7.05;;;;;;;11.25;100.00;100334.08;1739267;81;21244;-65
2022/11/03 10:05:01;;;;;;;12.05;6.28;;;;;;;11.26;100.00;100341.25;1684894;85;21028;-64
2022/11/03 10:07:31;;;;;;;12.58;7.17;;;;;;;11.25;100.00;100332.70;1701479;84;21505;-66
2022/11/03 10:10:01;;;;;;;14.85;7.75;;;;;;;11.25;100.00;100334.92;1672912;86;21125;-65
2022/11/03 10:12:36;;;;;;;17.15;7.97;;;;;;;11.24;100.00;100343.36;1685137;85;21067;-60
2022/11/03 10:15:42;;;;;;;13.13;7.97;;;;;;;11.21;100.00;100332.80;1603245;89;21548;-61
2022/11/03 10:18:21;;;;;;;8.53;5.10;;;;;;;11.20;100.00;100344.81;1605878;88;21079;-60
2022/11/03 10:21:44;;;;;;;10.70;5.28;;;;;;;11.17;100.00;100336.99;1652428;86;21033;-61
2022/11/03 10:24:38;;;;;;;10.40;5.15;;;;;;;11.09;100.00;100340.75;1657729;86;21112;-60
2022/11/03 10:27:49;;;;;;;7.60;4.10;;;;;;;11.07;100.00;100335.99;1657033;86;21054;-60
2022/11/03 10:31:19;;;;;;;8.68;3.90;;;;;;;10.99;100.00;100342.98;1654189;86;21077;-62
2022/11/03 10:33:55;;;;;;;6.62;2.77;;;;;;;10.91;100.00;100346.73;1655505;86;21118;-61
2022/11/03 10:36:35;;;;;;;3.92;2.45;;;;;;;10.86;100.00;100342.90;1655030;86;21089;-60
2022/11/03 10:39:30;;;;;;;5.10;3.27;;;;;;;10.82;100.00;100339.71;1648898;86;21134;-60
2022/11/03 10:42:01;;;;;;;3.85;2.05;;;;;;;10.78;100.00;100346.64;1654506;86;21229;-59
2022/11/03 10:44:33;;;;;;;7.10;2.80;;;;;;;10.75;100.00;100348.41;1654859;86;21035;-60
2022/11/03 10:47:28;;;;;;;3.80;2.30;;;;;;;10.69;100.00;100348.69;1658477;86;21607;-60
2022/11/03 10:50:24;;;;;;;4.60;2.08;;;;;;;10.68;100.00;100353.00;1658068;86;21048;-60
2022/11/03 10:52:54;;;;;;;3.62;2.17;;;;;;;10.66;100.00;100355.09;1652168;86;21051;-60
2022/11/03 10:55:24;;;;;;;3.80;2.72;;;;;;;10.64;100.00;100357.19;1656225;86;21161;-61
2022/11/03 10:58:01;;;;;;;23.42;18.77;;;;;;;10.59;100.00;100350.09;1655707;86;21018;-61
2022/11/03 11:00:32;;;;;;;10.30;6.50;;;;;;;10.56;100.00;100355.97;1657801;86;21086;-60
2022/11/03 11:03:01;;;;;;;9.25;4.60;;;;;;;10.53;100.00;100350.88;1637073;86;21162;-61
2022/11/03 11:05:31;;;;;;;2.40;1.87;;;;;;;10.53;100.00;100350.36;1660614;86;21050;-61
2022/11/03 11:08:03;;;;;;;3.83;2.22;;;;;;;10.54;100.00;100348.47;1631078;86;21095;-60
2022/11/03 11:10:32;;;;;;;5.47;3.30;;;;;;;10.53;100.00;100348.14;1659397;86;21194;-61
2022/11/03 11:13:23;;;;;;;5.72;2.67;;;;;;;10.53;100.00;100346.77;1608174;86;21077;-61
2022/11/03 11:16:00;;;;;;;6.05;2.83;;;;;;;10.55;100.00;100348.79;1657307;86;21480;-60
2022/11/03 11:18:36;;;;;;;10.35;3.67;;;;;;;10.54;100.00;100348.47;1694370;82;21003;-62
2022/11/03 11:21:20;;;;;;;6.75;3.20;;;;;;;10.51;100.00;100340.64;1747372;82;21082;-62
2022/11/03 11:24:00;;;;;;;5.45;2.62;;;;;;;10.47;100.00;100346.52;1742605;82;21024;-60
2022/11/03 11:26:46;;;;;;;7.80;3.20;;;;;;;10.44;100.00;100342.81;1711526;82;21030;-61
2022/11/03 11:30:08;;;;;;;7.70;3.98;;;;;;;10.41;100.00;100337.73;1732913;82;21509;-61
2022/11/03 11:33:13;;;;;;;7.97;4.22;;;;;;;10.43;100.00;100346.59;1741836;82;21026;-60
2022/11/03 11:36:23;;;;;;;10.58;4.25;;;;;;;10.46;100.00;100345.35;1737502;81;21066;-64
2022/11/03 11:39:00;;;;;;;11.35;5.90;;;;;;;10.44;100.00;100345.55;1744583;81;21037;-62
2022/11/03 11:42:19;;;;;;;10.72;5.53;;;;;;;10.39;100.00;100341.16;1738806;82;21043;-61
2022/11/03 11:45:08;;;;;;;11.00;5.25;;;;;;;10.38;100.00;100340.83;1742069;82;21556;-63
2022/11/03 11:47:54;;;;;;;7.97;4.17;;;;;;;10.41;100.00;100345.10;1740150;82;21961;-61
2022/11/03 11:51:22;;;;;;;8.73;5.53;;;;;;;10.41;100.00;100346.47;1739440;82;21506;-62
2022/11/03 11:54:18;;;;;;;7.40;4.12;;;;;;;10.37;100.00;100335.03;1738344;82;21055;-61
2022/11/03 11:57:19;;;;;;;8.50;4.10;;;;;;;10.41;100.00;100343.20;1735271;82;21055;-61
2022/11/03 11:59:51;;;;;;;4.83;3.30;;;;;;;10.41;100.00;100337.73;1744264;82;21034;-62
2022/11/03 12:02:24;;;;;;;6.17;3.40;;;;;;;10.41;100.00;100344.58;1740582;79;21116;-61
2022/11/03 12:05:01;;;;;;;7.37;3.45;;;;;;;10.44;100.00;100339.22;1743494;81;21073;-60
2022/11/03 12:07:33;;;;;;;6.55;4.05;;;;;;;10.46;100.00;100339.35;1748927;81;21070;-60